createdAt,value
2022-12-26T00:01:02.139Z,3.33
2022-12-26T00:03:30.615Z,3.09
2022-12-26T00:05:58.629Z,2.92
2022-12-26T00:08:28.123Z,2.77
2022-12-26T00:10:56.099Z,3.02
2022-12-26T00:13:39.195Z,3.01
2022-12-26T00:16:10.080Z,2.79
2022-12-26T00:18:38.735Z,2.86
2022-12-26T00:21:07.043Z,2.88
2022-12-26T00:23:37.063Z,2.80
2022-12-26T00:26:05.979Z,2.82
2022-12-26T00:28:34.107Z,3.00
2022-12-26T00:31:07.174Z,3.15
2022-12-26T00:33:36.122Z,2.83
2022-12-26T00:36:05.009Z,2.66
2022-12-26T00:38:33.339Z,2.90
2022-12-26T00:41:02.824Z,2.92
2022-12-26T00:43:30.802Z,3.06
2022-12-26T00:45:58.734Z,3.10
2022-12-26T00:48:26.573Z,3.10
2022-12-26T00:50:54.654Z,3.07
2022-12-26T00:53:23.353Z,2.84
2022-12-26T00:55:51.462Z,2.98
2022-12-26T00:58:21.941Z,2.88
2022-12-26T01:00:50.387Z,2.80
2022-12-26T01:03:18.377Z,2.82
2022-12-26T01:05:49.080Z,2.79
2022-12-26T01:08:23.347Z,2.80
2022-12-26T01:10:52.931Z,2.68
2022-12-26T01:13:22.495Z,2.59
2022-12-26T01:15:51.847Z,2.61
2022-12-26T01:18:20.047Z,2.59
2022-12-26T01:20:48.881Z,2.60
2022-12-26T01:23:18.024Z,2.47
2022-12-26T01:26:15.559Z,2.37
2022-12-26T01:28:35.491Z,2.35
2022-12-26T01:31:04.097Z,2.29
2022-12-26T01:33:32.156Z,2.38
2022-12-26T01:36:00.370Z,2.39
2022-12-26T01:38:28.802Z,2.40
2022-12-26T01:41:10.552Z,2.42
2022-12-26T01:43:56.093Z,2.45
2022-12-26T01:46:28.564Z,2.28
2022-12-26T01:48:59.638Z,2.31
2022-12-26T01:51:31.217Z,2.39
2022-12-26T01:54:41.456Z,2.48
2022-12-26T01:56:53.022Z,2.62
2022-12-26T01:59:24.616Z,2.56
2022-12-26T02:01:55.256Z,2.54
2022-12-26T02:04:44.996Z,2.34
2022-12-26T02:07:13.285Z,2.58
2022-12-26T02:09:41.703Z,2.42
2022-12-26T02:12:35.369Z,2.54
2022-12-26T02:15:08.234Z,2.69
2022-12-26T02:17:36.140Z,2.21
2022-12-26T02:20:19.113Z,2.61
2022-12-26T02:23:20.520Z,2.60
2022-12-26T02:26:33.189Z,2.59
2022-12-26T02:29:41.939Z,2.57
2022-12-26T02:32:18.754Z,2.45
2022-12-26T02:34:56.884Z,2.25
2022-12-26T02:37:37.513Z,2.07
2022-12-26T02:40:20.474Z,2.02
2022-12-26T02:42:57.009Z,2.04
2022-12-26T02:45:52.704Z,2.09
2022-12-26T02:48:32.491Z,2.05
2022-12-26T02:51:29.474Z,2.11
2022-12-26T02:54:24.588Z,2.16
2022-12-26T02:57:14.050Z,2.03
2022-12-26T03:00:08.080Z,2.09
2022-12-26T03:02:59.253Z,2.10
2022-12-26T03:05:51.818Z,1.83
2022-12-26T03:08:44.341Z,2.08
2022-12-26T03:11:29.410Z,2.04
2022-12-26T03:14:04.164Z,1.92
2022-12-26T03:16:49.628Z,2.14
2022-12-26T03:19:18.030Z,2.19
2022-12-26T03:21:48.921Z,2.08
2022-12-26T03:24:18.563Z,1.90
2022-12-26T03:26:50.210Z,1.80
2022-12-26T03:29:37.642Z,1.75
2022-12-26T03:32:08.092Z,1.63
2022-12-26T03:34:41.885Z,1.59
2022-12-26T03:37:48.478Z,1.46
2022-12-26T03:40:44.407Z,1.36
2022-12-26T03:43:39.399Z,1.62
2022-12-26T03:46:35.840Z,2.06
2022-12-26T03:49:27.062Z,2.30
2022-12-26T03:52:18.067Z,2.58
2022-12-26T03:55:12.256Z,2.45
2022-12-26T03:58:02.188Z,2.03
2022-12-26T04:00:49.597Z,1.87
2022-12-26T04:03:38.632Z,1.80
2022-12-26T04:06:27.788Z,1.52
2022-12-26T04:09:18.298Z,1.76
2022-12-26T04:12:05.277Z,1.55
2022-12-26T04:14:59.128Z,1.84
2022-12-26T04:17:57.552Z,1.83
2022-12-26T04:20:31.179Z,1.93
2022-12-26T04:23:23.736Z,2.01
2022-12-26T04:26:17.862Z,2.01
2022-12-26T04:29:04.750Z,1.83
2022-12-26T04:31:55.023Z,2.15
2022-12-26T04:34:48.502Z,2.10
2022-12-26T04:37:40.913Z,2.01
2022-12-26T04:40:31.033Z,1.88
2022-12-26T04:43:48.491Z,1.42
2022-12-26T04:46:07.651Z,1.81
2022-12-26T04:49:01.150Z,1.72
2022-12-26T04:51:29.010Z,1.57
2022-12-26T04:53:56.904Z,1.38
2022-12-26T04:56:24.876Z,0.99
2022-12-26T04:58:52.719Z,1.27
2022-12-26T05:01:39.650Z,1.17
2022-12-26T05:04:36.253Z,0.97
2022-12-26T05:07:24.155Z,0.83
2022-12-26T05:09:54.593Z,0.80
2022-12-26T05:12:22.664Z,0.40
2022-12-26T05:14:50.509Z,0.72
2022-12-26T05:17:37.311Z,0.71
2022-12-26T05:20:23.408Z,0.72
2022-12-26T05:23:16.033Z,0.59
2022-12-26T05:26:03.470Z,0.55
2022-12-26T05:28:43.387Z,0.11
2022-12-26T05:31:12.640Z,0.54
2022-12-26T05:33:59.788Z,0.47
2022-12-26T05:36:32.543Z,0.56
2022-12-26T05:39:00.706Z,0.66
2022-12-26T05:41:29.066Z,0.48
2022-12-26T05:43:56.942Z,0.62
2022-12-26T05:46:24.902Z,0.76
2022-12-26T05:48:54.187Z,0.69
2022-12-26T05:51:22.261Z,0.65
2022-12-26T05:53:50.569Z,0.78
2022-12-26T05:56:19.276Z,0.70
2022-12-26T05:58:47.453Z,0.62
2022-12-26T06:01:17.795Z,0.51
2022-12-26T06:03:48.837Z,0.58
2022-12-26T06:06:19.299Z,0.37
2022-12-26T06:08:49.324Z,0.82
2022-12-26T06:11:18.526Z,0.96
2022-12-26T06:13:46.746Z,1.23
2022-12-26T06:16:17.663Z,1.65
2022-12-26T06:18:45.901Z,1.85
2022-12-26T06:21:15.602Z,2.09
2022-12-26T06:23:44.899Z,2.25
2022-12-26T06:26:13.648Z,1.96
2022-12-26T06:28:42.829Z,2.29
2022-12-26T06:31:14.516Z,2.70
2022-12-26T06:33:43.077Z,3.10
2022-12-26T06:36:12.902Z,3.31
2022-12-26T06:38:41.177Z,3.50
2022-12-26T06:41:12.448Z,3.79
2022-12-26T06:43:40.431Z,4.22
2022-12-26T06:46:09.465Z,4.07
2022-12-26T06:48:39.606Z,4.58
2022-12-26T06:51:10.571Z,4.47
2022-12-26T06:53:38.734Z,4.55
2022-12-26T06:56:07.861Z,4.74
2022-12-26T06:58:37.483Z,4.85
2022-12-26T07:01:06.520Z,4.54
2022-12-26T07:03:34.561Z,4.80
2022-12-26T07:06:05.250Z,4.76
2022-12-26T07:08:33.652Z,4.92
2022-12-26T07:11:02.022Z,4.95
2022-12-26T07:13:29.984Z,5.09
2022-12-26T07:16:01.479Z,5.32
2022-12-26T07:18:29.384Z,5.99
2022-12-26T07:20:57.267Z,6.17
2022-12-26T07:23:25.220Z,6.26
2022-12-26T07:25:53.149Z,6.48
2022-12-26T07:28:21.067Z,6.75
2022-12-26T07:30:49.487Z,6.64
2022-12-26T07:33:18.984Z,6.80
2022-12-26T07:35:46.838Z,6.56
2022-12-26T07:38:14.911Z,6.47
2022-12-26T07:40:42.853Z,6.85
2022-12-26T07:43:10.869Z,6.75
2022-12-26T07:45:43.484Z,6.67
2022-12-26T07:48:13.646Z,6.49
2022-12-26T07:50:47.080Z,6.31
2022-12-26T07:53:15.407Z,6.46
2022-12-26T07:55:43.345Z,6.62
2022-12-26T07:58:11.457Z,6.69
2022-12-26T08:00:39.332Z,6.44
2022-12-26T08:03:08.400Z,6.48
2022-12-26T08:05:39.337Z,6.60
2022-12-26T08:08:08.577Z,6.50
2022-12-26T08:10:37.974Z,6.49
2022-12-26T08:13:05.923Z,6.61
2022-12-26T08:15:33.936Z,6.99
2022-12-26T08:18:01.845Z,7.47
2022-12-26T08:20:29.776Z,7.34
2022-12-26T08:25:31.806Z,8.35
2022-12-26T08:28:00.299Z,8.33
2022-12-26T08:30:28.204Z,8.64
2022-12-26T08:32:56.101Z,8.52
2022-12-26T08:35:24.464Z,8.51
2022-12-26T08:37:52.417Z,8.81
2022-12-26T08:40:41.451Z,8.82
2022-12-26T08:43:31.022Z,9.13
2022-12-26T08:46:02.078Z,8.92
2022-12-26T08:48:30.499Z,8.82
2022-12-26T08:51:01.766Z,8.34
2022-12-26T08:53:32.907Z,8.39
2022-12-26T08:56:00.966Z,8.28
2022-12-26T08:58:30.408Z,8.54
2022-12-26T09:01:07.548Z,9.08
2022-12-26T09:03:35.835Z,9.17
2022-12-26T09:06:06.443Z,9.23
2022-12-26T09:08:35.716Z,8.78
2022-12-26T09:11:05.165Z,9.45
2022-12-26T09:13:35.701Z,9.56
2022-12-26T09:16:09.418Z,9.37
2022-12-26T09:18:37.624Z,9.63
2022-12-26T09:21:08.422Z,9.44
2022-12-26T09:23:37.168Z,9.79
2022-12-26T09:26:07.478Z,9.80
2022-12-26T09:28:37.557Z,9.00
2022-12-26T09:31:07.297Z,10.08
2022-12-26T09:33:37.612Z,10.26
2022-12-26T09:36:14.056Z,10.19
2022-12-26T09:38:42.858Z,10.21
2022-12-26T09:41:29.659Z,10.25
2022-12-26T09:44:07.187Z,9.60
2022-12-26T09:46:42.822Z,9.40
2022-12-26T09:49:14.341Z,9.48
2022-12-26T09:51:45.795Z,9.96
2022-12-26T09:54:19.128Z,10.06
2022-12-26T09:57:05.296Z,9.80
2022-12-26T09:59:47.271Z,10.14
2022-12-26T10:02:19.776Z,10.43
2022-12-26T10:04:47.984Z,10.19
2022-12-26T10:07:22.498Z,10.80
2022-12-26T10:10:03.951Z,10.53
2022-12-26T10:12:40.073Z,10.96
2022-12-26T10:15:32.636Z,10.95
2022-12-26T10:18:12.665Z,11.45
2022-12-26T10:20:53.084Z,11.82
2022-12-26T10:23:32.327Z,12.40
2022-12-26T10:26:07.019Z,12.22
2022-12-26T10:28:40.323Z,11.77
2022-12-26T10:31:16.861Z,11.90
2022-12-26T10:33:48.793Z,11.99
2022-12-26T10:36:23.098Z,12.27
2022-12-26T10:38:54.121Z,12.36
2022-12-26T10:41:28.956Z,12.62
2022-12-26T10:43:56.922Z,12.65
2022-12-26T10:46:40.611Z,12.88
2022-12-26T10:49:12.230Z,12.41
2022-12-26T10:51:40.456Z,11.72
2022-12-26T10:54:16.772Z,11.92
2022-12-26T10:56:46.378Z,12.16
2022-12-26T10:59:18.325Z,11.36
2022-12-26T11:01:50.994Z,11.61
2022-12-26T11:04:44.471Z,12.18
2022-12-26T11:07:12.298Z,12.93
2022-12-26T11:09:44.018Z,13.05
2022-12-26T11:12:22.155Z,13.08
2022-12-26T11:14:50.974Z,12.99
2022-12-26T11:17:29.290Z,13.22
2022-12-26T11:20:27.750Z,13.20
2022-12-26T11:22:56.017Z,12.85
2022-12-26T11:25:27.601Z,13.04
2022-12-26T11:27:57.480Z,13.37
2022-12-26T11:30:29.164Z,13.24
2022-12-26T11:33:24.065Z,13.02
2022-12-26T11:35:55.908Z,13.06
2022-12-26T11:38:44.204Z,13.51
2022-12-26T11:41:36.799Z,13.63
2022-12-26T11:44:22.623Z,13.58
2022-12-26T11:46:55.659Z,13.81
2022-12-26T11:49:31.138Z,13.84
2022-12-26T11:52:00.683Z,13.49
2022-12-26T11:54:32.281Z,12.61
2022-12-26T11:57:03.719Z,13.40
2022-12-26T11:59:31.649Z,13.50
2022-12-26T12:02:22.221Z,13.24
2022-12-26T12:04:55.993Z,13.39
2022-12-26T12:07:48.694Z,13.80
2022-12-26T12:10:47.829Z,13.93
2022-12-26T12:13:46.123Z,13.65
2022-12-26T12:16:32.778Z,13.84
2022-12-26T12:19:15.676Z,13.48
2022-12-26T12:21:46.654Z,13.51
2022-12-26T12:24:38.534Z,13.78
2022-12-26T12:27:13.245Z,13.92
2022-12-26T12:30:02.732Z,14.08
2022-12-26T12:32:41.079Z,13.60
2022-12-26T12:35:25.695Z,13.80
2022-12-26T12:38:17.450Z,13.86
2022-12-26T12:41:00.194Z,13.50
2022-12-26T12:43:33.511Z,13.56
2022-12-26T12:46:10.345Z,13.82
2022-12-26T12:48:51.109Z,14.06
2022-12-26T12:51:29.059Z,14.03
2022-12-26T12:54:16.580Z,14.05
2022-12-26T12:56:52.500Z,13.97
2022-12-26T12:59:33.517Z,13.53
2022-12-26T13:02:10.278Z,13.56
2022-12-26T13:04:44.342Z,13.79
2022-12-26T13:07:17.799Z,13.92
2022-12-26T13:09:51.210Z,13.67
2022-12-26T13:12:23.267Z,13.41
2022-12-26T13:14:56.718Z,13.28
2022-12-26T13:17:32.646Z,13.04
2022-12-26T13:20:04.545Z,13.29
2022-12-26T13:22:52.930Z,13.51
2022-12-26T13:25:25.830Z,13.39
2022-12-26T13:28:09.435Z,13.51
2022-12-26T13:30:38.652Z,12.83
2022-12-26T13:33:07.177Z,13.04
2022-12-26T13:35:56.844Z,12.57
2022-12-26T13:38:26.379Z,12.96
2022-12-26T13:41:21.912Z,12.74
2022-12-26T13:44:03.005Z,12.47
2022-12-26T13:46:38.617Z,12.57
2022-12-26T13:49:07.775Z,12.86
2022-12-26T13:52:00.590Z,13.15
2022-12-26T13:54:30.164Z,13.07
2022-12-26T13:57:41.187Z,12.99
2022-12-26T14:00:18.125Z,12.72
2022-12-26T14:03:24.013Z,12.77
2022-12-26T14:06:19.788Z,12.44
2022-12-26T14:09:07.104Z,12.42
2022-12-26T14:11:48.163Z,12.24
2022-12-26T14:14:27.723Z,12.06
2022-12-26T14:17:03.268Z,11.96
2022-12-26T14:19:43.974Z,11.92
2022-12-26T14:22:18.438Z,11.88
2022-12-26T14:25:05.761Z,11.86
2022-12-26T14:27:43.482Z,11.84
2022-12-26T14:30:25.490Z,11.58
2022-12-26T14:33:10.307Z,11.37
2022-12-26T14:35:46.049Z,11.14
2022-12-26T14:38:26.106Z,11.02
2022-12-26T14:41:06.933Z,10.97
2022-12-26T14:43:36.736Z,11.04
2022-12-26T14:46:29.031Z,10.83
2022-12-26T14:49:00.011Z,10.69
2022-12-26T14:51:36.925Z,10.70
2022-12-26T14:54:50.801Z,10.62
2022-12-26T14:57:46.198Z,10.51
2022-12-26T15:00:32.602Z,10.41
2022-12-26T15:03:45.976Z,10.03
2022-12-26T15:07:01.281Z,10.07
2022-12-26T15:10:13.749Z,10.12
2022-12-26T15:13:28.765Z,9.89
2022-12-26T15:16:11.513Z,9.86
2022-12-26T15:19:07.864Z,9.75
2022-12-26T15:22:13.778Z,9.60
2022-12-26T15:25:19.290Z,9.46
2022-12-26T15:28:18.170Z,9.40
2022-12-26T15:31:08.573Z,9.34
2022-12-26T15:33:41.814Z,9.23
2022-12-26T15:36:24.263Z,9.15
2022-12-26T15:38:59.576Z,8.92
2022-12-26T15:41:36.995Z,8.96
2022-12-26T15:44:17.778Z,8.34
2022-12-26T15:46:54.525Z,8.96
2022-12-26T15:49:33.730Z,9.02
2022-12-26T15:52:11.872Z,8.98
2022-12-26T15:55:07.842Z,8.89
2022-12-26T15:57:46.996Z,8.84
2022-12-26T16:00:18.848Z,8.71
2022-12-26T16:02:51.124Z,8.43
2022-12-26T16:05:44.182Z,8.31
2022-12-26T16:08:37.352Z,8.49
2022-12-26T16:11:31.745Z,8.41
2022-12-26T16:14:01.640Z,8.35
2022-12-26T16:16:35.235Z,8.27
2022-12-26T16:19:17.265Z,7.96
2022-12-26T16:22:06.281Z,7.96
2022-12-26T16:24:38.306Z,7.85
2022-12-26T16:27:09.142Z,7.71
2022-12-26T16:29:46.770Z,7.51
2022-12-26T16:32:19.134Z,7.99
2022-12-26T16:34:48.172Z,8.26
2022-12-26T16:37:20.217Z,8.24
2022-12-26T16:40:09.459Z,8.27
2022-12-26T16:42:37.351Z,7.25
2022-12-26T16:45:07.527Z,8.06
2022-12-26T16:47:36.454Z,8.33
2022-12-26T16:50:05.746Z,8.30
2022-12-26T16:52:43.956Z,8.25
2022-12-26T16:55:37.725Z,8.35
2022-12-26T16:58:15.270Z,8.06
2022-12-26T17:01:01.156Z,8.17
2022-12-26T17:03:37.629Z,8.01
2022-12-26T17:06:12.777Z,7.68
2022-12-26T17:08:46.167Z,7.08
2022-12-26T17:11:15.807Z,6.87
2022-12-26T17:13:52.775Z,6.86
2022-12-26T17:16:24.736Z,6.70
2022-12-26T17:18:54.056Z,6.85
2022-12-26T17:21:29.939Z,6.84
2022-12-26T17:24:06.929Z,6.89
2022-12-26T17:26:38.141Z,6.70
2022-12-26T17:29:06.285Z,6.54
2022-12-26T17:31:37.058Z,6.46
2022-12-26T17:34:09.395Z,6.01
2022-12-26T17:39:27.829Z,6.60
2022-12-26T17:41:59.186Z,6.58
2022-12-26T17:44:38.837Z,6.55
2022-12-26T17:47:20.670Z,6.43
2022-12-26T17:49:49.314Z,6.24
2022-12-26T17:52:20.698Z,6.14
2022-12-26T17:54:50.283Z,6.18
2022-12-26T17:57:22.929Z,6.31
2022-12-26T17:59:52.110Z,6.00
2022-12-26T18:02:21.608Z,6.47
2022-12-26T18:04:50.249Z,6.34
2022-12-26T18:07:24.314Z,6.30
2022-12-26T18:09:56.759Z,6.41
2022-12-26T18:12:25.980Z,6.49
2022-12-26T18:15:01.090Z,6.45
2022-12-26T18:17:32.859Z,6.14
2022-12-26T18:20:00.759Z,6.03
2022-12-26T18:22:28.906Z,5.95
2022-12-26T18:24:56.998Z,5.93
2022-12-26T18:27:30.273Z,5.89
2022-12-26T18:29:58.407Z,5.89
2022-12-26T18:32:27.724Z,5.87
2022-12-26T18:34:55.627Z,5.68
2022-12-26T18:37:35.815Z,5.83
2022-12-26T18:40:03.786Z,5.73
2022-12-26T18:42:33.077Z,5.78
2022-12-26T18:45:00.984Z,5.86
2022-12-26T18:47:30.028Z,5.80
2022-12-26T18:49:57.904Z,5.81
2022-12-26T18:52:25.807Z,5.77
2022-12-26T18:54:53.701Z,5.77
2022-12-26T18:57:21.811Z,5.46
2022-12-26T18:59:51.097Z,5.26
2022-12-26T19:02:20.354Z,5.18
2022-12-26T19:04:49.342Z,5.06
2022-12-26T19:07:18.235Z,5.12
2022-12-26T19:09:46.442Z,5.11
2022-12-26T19:12:14.495Z,4.63
2022-12-26T19:14:42.991Z,4.91
2022-12-26T19:17:12.364Z,4.75
2022-12-26T19:19:40.494Z,4.85
2022-12-26T19:22:08.910Z,4.83
2022-12-26T19:24:36.985Z,4.88
2022-12-26T19:27:05.354Z,4.88
2022-12-26T19:29:33.188Z,4.88
2022-12-26T19:32:01.160Z,4.93
2022-12-26T19:34:30.656Z,4.92
2022-12-26T19:36:58.517Z,4.88
2022-12-26T19:39:26.371Z,4.86
2022-12-26T19:41:54.319Z,4.74
2022-12-26T19:44:22.401Z,4.48
2022-12-26T19:46:50.344Z,4.35
2022-12-26T19:49:39.561Z,4.46
2022-12-26T19:52:07.707Z,4.39
2022-12-26T19:54:35.584Z,4.39
2022-12-26T19:57:03.486Z,4.50
2022-12-26T19:59:31.393Z,4.55
2022-12-26T20:01:59.478Z,4.47
2022-12-26T20:04:27.477Z,4.24
2022-12-26T20:06:59.816Z,4.32
2022-12-26T20:09:28.407Z,4.41
2022-12-26T20:11:57.174Z,4.20
2022-12-26T20:14:27.601Z,4.53
2022-12-26T20:17:06.117Z,4.48
2022-12-26T20:19:36.450Z,4.56
2022-12-26T20:22:06.718Z,4.49
2022-12-26T20:24:35.103Z,4.60
2022-12-26T20:27:03.537Z,4.31
2022-12-26T20:29:31.648Z,4.37
2022-12-26T20:31:59.867Z,4.36
2022-12-26T20:34:27.903Z,4.50
2022-12-26T20:36:55.795Z,4.58
2022-12-26T20:39:26.028Z,4.36
2022-12-26T20:41:54.390Z,4.41
2022-12-26T20:44:22.386Z,4.41
2022-12-26T20:46:50.259Z,4.34
2022-12-26T20:49:18.583Z,4.59
2022-12-26T20:51:46.892Z,4.66
2022-12-26T20:54:16.688Z,4.69
2022-12-26T20:56:47.238Z,4.62
2022-12-26T20:59:15.164Z,4.15
2022-12-26T21:01:43.464Z,3.91
2022-12-26T21:04:18.621Z,3.70
2022-12-26T21:06:47.576Z,3.55
2022-12-26T21:09:15.823Z,3.63
2022-12-26T21:11:45.438Z,3.49
2022-12-26T21:14:17.031Z,3.70
2022-12-26T21:16:46.984Z,3.76
2022-12-26T21:19:16.160Z,3.66
2022-12-26T21:21:45.736Z,3.55
2022-12-26T21:24:15.989Z,3.62
2022-12-26T21:26:44.168Z,3.51
2022-12-26T21:29:15.173Z,3.62
2022-12-26T21:31:43.204Z,3.68
2022-12-26T21:34:15.256Z,3.59
2022-12-26T21:37:04.250Z,3.62
2022-12-26T21:39:33.147Z,3.55
2022-12-26T21:42:02.163Z,3.46
2022-12-26T21:44:31.441Z,3.51
2022-12-26T21:46:59.357Z,3.59
2022-12-26T21:49:27.393Z,3.65
2022-12-26T21:51:55.315Z,3.69
2022-12-26T21:54:46.676Z,3.73
2022-12-26T21:57:17.100Z,3.60
2022-12-26T21:59:59.357Z,3.51
2022-12-26T22:02:48.365Z,3.52
2022-12-26T22:05:17.257Z,3.51
2022-12-26T22:07:45.537Z,3.34
2022-12-26T22:10:34.771Z,3.49
2022-12-26T22:13:02.827Z,2.65
2022-12-26T22:16:04.313Z,3.29
2022-12-26T22:18:33.738Z,3.23
2022-12-26T22:21:06.916Z,3.28
2022-12-26T22:23:35.220Z,3.18
2022-12-26T22:26:03.193Z,3.10
2022-12-26T22:28:31.525Z,3.13
2022-12-26T22:31:01.768Z,3.08
2022-12-26T22:33:30.609Z,2.94
2022-12-26T22:36:05.626Z,3.13
2022-12-26T22:38:33.558Z,3.12
2022-12-26T22:41:01.947Z,3.31
2022-12-26T22:43:30.657Z,3.29
2022-12-26T22:46:00.271Z,3.29
2022-12-26T22:48:28.412Z,3.16
2022-12-26T22:50:56.951Z,2.87
2022-12-26T22:53:25.926Z,3.18
2022-12-26T22:55:58.579Z,2.99
2022-12-26T22:58:26.723Z,2.74
2022-12-26T23:00:54.578Z,2.90
2022-12-26T23:03:24.242Z,3.04
2022-12-26T23:05:53.174Z,2.94
2022-12-26T23:08:23.300Z,2.86
2022-12-26T23:10:53.492Z,2.94
2022-12-26T23:13:21.839Z,2.62
2022-12-26T23:15:56.383Z,2.82
2022-12-26T23:18:52.725Z,2.84
2022-12-26T23:21:43.161Z,2.61
2022-12-26T23:24:15.796Z,2.83
2022-12-26T23:26:46.011Z,2.60
2022-12-26T23:29:32.632Z,2.89
2022-12-26T23:32:00.926Z,2.63
2022-12-26T23:34:30.246Z,2.46
2022-12-26T23:36:58.193Z,2.67
2022-12-26T23:39:26.276Z,2.59
2022-12-26T23:41:54.473Z,2.69
2022-12-26T23:44:22.373Z,2.57
2022-12-26T23:46:50.357Z,3.65
2022-12-26T23:49:18.693Z,4.38
2022-12-26T23:51:47.980Z,4.49
2022-12-26T23:54:15.887Z,4.52
2022-12-26T23:56:43.737Z,3.74
2022-12-26T23:59:11.573Z,3.09
